Kernville, CA

11:43 AM PST on February 01, 2015 (GMT -0800)
RAWS RIVERKERN CA US | Change Station
CLOSE
Current Station
Personal Weather Station
Location: Kernville, CA
Elevation: 3043 ft
Nearby Weather Stations

Elev 3043 ft 35.78 °N, 118.43 °W | Updated 46 minutes ago

Clear
Clear
59 °F
Feels Like 59 °F
N
1
Wind Variable Wind from SSW
Gusts 11.0 mph

Today
High -- | Low -- °F
--% Chance of Precip.
Yesterday
High -- | Low -- °F
Precip. -- in
6:53 AM 5:21 PM
Waxing Gibbous, 96% visible
Pressure 30.21 in
Visibility 10.0 miles
Clouds Clear
Dew Point 28 °F
Humidity 31%
Rainfall 0.00 in
Snow Depth Not available.
UV 4 out of 12
Pollen 6.70 out of 12
Air Quality Not available.
Flu Activity Not available.
METAR KNID 011856Z AUTO 00000KT 10SM CLR 14/00 A3020 RMK AO2 SLP228 T01390000 $

More Conditions Fewer Conditions

Pressure 30.21 in
Visibility 10.0 miles
Clouds Clear
Dew Point 28 °F
Humidity 31%
Rainfall 0.00 in
Snow Depth Not available.
UV 4 out of 12
Pollen 6.70 out of 12
Air Quality Not available.
Flu Activity Not available.
METAR KNID 011856Z AUTO 00000KT 10SM CLR 14/00 A3020 RMK AO2 SLP228 T01390000 $

More Conditions Fewer Conditions

10-Day Weather Forecast

Almanac

Astronomy

Feb. 01, 2015 Rise Set
Actual Time
Civil Twilight
Nautical Twilight
Astronomical Twilight
Moon
Length of Visible Light
Length of Day
Tomorrow will be .
, % of the Moon is Illuminated

Today's Extremes

State Highs State Lows

Community

WunderPhotos

Upload Photos

1,792,471 photos uploaded!

WunderBlogs® & News

Nearby

Air Quality

  Air Quality AQ Index Pollutant
Not available.

Snow Depth

Station Depth Elevation

Earthquake Activity

City Distance Mag. Time & Date
Minimum magnitude displayed is 2.5.

Coastal Water Temperatures

Place Temperature

Nearby Weather Stations